createdAt,value
2022-12-12T00:00:23.315Z,44.85
2022-12-12T00:02:50.877Z,44.17
2022-12-12T00:05:19.944Z,46.20
2022-12-12T00:07:47.067Z,45.40
2022-12-12T00:10:14.434Z,40.33
2022-12-12T00:12:41.728Z,45.22
2022-12-12T00:15:09.564Z,42.25
2022-12-12T00:17:36.710Z,40.28
2022-12-12T00:20:05.718Z,41.30
2022-12-12T00:22:32.852Z,42.15
2022-12-12T00:24:59.804Z,40.20
2022-12-12T00:27:26.655Z,42.97
2022-12-12T00:29:55.230Z,43.83
2022-12-12T00:32:22.500Z,44.80
2022-12-12T00:34:49.859Z,42.22
2022-12-12T00:37:17.241Z,45.75
2022-12-12T00:39:44.227Z,44.70
2022-12-12T00:42:11.154Z,45.38
2022-12-12T00:44:38.043Z,41.28
2022-12-12T00:47:05.054Z,44.60
2022-12-12T00:49:32.293Z,44.92
2022-12-12T00:51:59.235Z,43.55
2022-12-12T00:54:26.105Z,51.55
2022-12-12T00:56:53.026Z,43.17
2022-12-12T00:59:19.955Z,47.28
2022-12-12T01:01:47.845Z,38.85
2022-12-12T01:04:15.107Z,47.78
2022-12-12T01:06:42.056Z,47.25
2022-12-12T01:09:08.983Z,41.03
2022-12-12T01:11:36.082Z,42.83
2022-12-12T01:14:03.076Z,41.83
2022-12-12T01:16:31.032Z,48.00
2022-12-12T01:18:58.132Z,42.45
2022-12-12T01:21:25.218Z,47.92
2022-12-12T01:23:52.212Z,45.03
2022-12-12T01:26:24.254Z,46.88
2022-12-12T01:28:52.477Z,44.08
2022-12-12T01:31:20.233Z,45.28
2022-12-12T01:33:47.561Z,42.50
2022-12-12T01:36:17.427Z,45.78
2022-12-12T01:38:50.307Z,44.83
2022-12-12T01:41:18.925Z,44.28
2022-12-12T01:43:46.220Z,45.58
2022-12-12T01:46:22.316Z,45.05
2022-12-12T01:48:58.349Z,50.05
2022-12-12T01:51:28.180Z,48.22
2022-12-12T01:54:05.832Z,47.30
2022-12-12T01:56:34.035Z,44.85
2022-12-12T01:59:04.710Z,43.53
2022-12-12T02:01:32.550Z,46.30
2022-12-12T02:04:02.588Z,43.17
2022-12-12T02:06:30.744Z,47.72
2022-12-12T02:09:04.671Z,45.08
2022-12-12T02:11:35.174Z,48.85
2022-12-12T02:14:02.228Z,44.90
2022-12-12T02:17:07.174Z,49.47
2022-12-12T02:20:30.470Z,45.58
2022-12-12T02:23:34.785Z,45.53
2022-12-12T02:26:19.626Z,48.42
2022-12-12T02:29:28.005Z,52.17
2022-12-12T02:32:37.067Z,48.92
2022-12-12T02:35:47.420Z,55.42
2022-12-12T02:38:27.851Z,51.55
2022-12-12T02:41:14.160Z,49.65
2022-12-12T02:44:21.195Z,49.70
2022-12-12T02:47:09.824Z,43.03
2022-12-12T02:49:41.266Z,47.95
2022-12-12T02:52:11.296Z,50.50
2022-12-12T02:54:39.046Z,48.05
2022-12-12T02:57:22.669Z,45.97
2022-12-12T03:00:02.428Z,46.88
2022-12-12T03:02:39.636Z,52.30
2022-12-12T03:05:52.530Z,49.13
2022-12-12T03:09:02.996Z,49.17
2022-12-12T03:12:14.282Z,45.30
2022-12-12T03:15:17.293Z,50.05
2022-12-12T03:18:38.218Z,47.03
2022-12-12T03:21:13.421Z,49.08
2022-12-12T03:26:30.173Z,50.90
2022-12-12T03:29:19.946Z,47.05
2022-12-12T03:31:58.061Z,52.50
2022-12-12T03:34:36.041Z,54.00
2022-12-12T03:37:24.432Z,53.25
2022-12-12T03:40:01.721Z,51.95
2022-12-12T03:42:39.714Z,48.88
2022-12-12T03:45:19.796Z,50.00
2022-12-12T03:47:58.999Z,49.80
2022-12-12T03:50:36.393Z,50.63
2022-12-12T03:53:15.352Z,51.08
2022-12-12T03:56:00.437Z,44.08
2022-12-12T03:58:42.480Z,55.15
2022-12-12T04:01:12.977Z,50.70
2022-12-12T04:04:00.308Z,48.90
2022-12-12T04:06:35.374Z,50.53
2022-12-12T04:09:27.010Z,51.05
2022-12-12T04:12:18.739Z,45.22
2022-12-12T04:15:20.693Z,51.53
2022-12-12T04:18:02.163Z,48.38
2022-12-12T04:21:02.019Z,45.88
2022-12-12T04:24:14.405Z,62.15
2022-12-12T04:26:52.048Z,47.17
2022-12-12T04:30:00.331Z,48.50
2022-12-12T04:32:42.754Z,49.13
2022-12-12T04:35:17.740Z,46.50
2022-12-12T04:38:04.603Z,53.53
2022-12-12T04:40:42.333Z,46.63
2022-12-12T04:43:14.535Z,45.38
2022-12-12T04:45:46.914Z,46.78
2022-12-12T04:48:21.123Z,46.58
2022-12-12T04:50:53.237Z,41.83
2022-12-12T04:53:32.442Z,47.88
2022-12-12T04:56:04.009Z,43.40
2022-12-12T04:58:31.198Z,43.85
2022-12-12T05:01:09.534Z,44.03
2022-12-12T05:03:47.866Z,43.45
2022-12-12T05:06:21.765Z,52.47
2022-12-12T05:08:53.472Z,49.22
2022-12-12T05:11:22.192Z,48.83
2022-12-12T05:13:50.578Z,51.03
2022-12-12T05:16:32.585Z,47.28
2022-12-12T05:19:00.646Z,46.53
2022-12-12T05:21:27.896Z,44.70
2022-12-12T05:23:54.742Z,51.83
2022-12-12T05:26:28.117Z,48.42
2022-12-12T05:28:55.746Z,52.08
2022-12-12T05:31:23.354Z,44.65
2022-12-12T05:33:50.721Z,48.28
2022-12-12T05:36:18.582Z,47.75
2022-12-12T05:38:45.846Z,57.08
2022-12-12T05:41:14.493Z,52.05
2022-12-12T05:43:41.352Z,51.78
2022-12-12T05:46:08.369Z,55.08
2022-12-12T05:48:35.339Z,52.90
2022-12-12T05:51:03.936Z,54.63
2022-12-12T05:53:31.545Z,56.10
2022-12-12T05:55:58.641Z,56.00
2022-12-12T05:58:25.618Z,54.15
2022-12-12T06:00:55.302Z,56.33
2022-12-12T06:03:24.262Z,54.40
2022-12-12T06:05:51.174Z,53.53
2022-12-12T06:08:23.570Z,50.60
2022-12-12T06:10:52.100Z,52.03
2022-12-12T06:13:18.987Z,50.45
2022-12-12T06:15:45.918Z,48.65
2022-12-12T06:18:12.825Z,54.95
2022-12-12T06:20:39.894Z,51.53
2022-12-12T06:23:07.025Z,49.22
2022-12-12T06:25:34.144Z,49.30
2022-12-12T06:28:01.060Z,50.70
2022-12-12T06:30:28.046Z,50.20
2022-12-12T06:32:54.913Z,49.88
2022-12-12T06:35:23.974Z,53.03
2022-12-12T06:37:50.956Z,50.55
2022-12-12T06:40:17.978Z,48.38
2022-12-12T06:42:48.295Z,46.55
2022-12-12T06:45:18.031Z,50.88
2022-12-12T06:47:45.311Z,45.78
2022-12-12T06:50:32.137Z,46.13
2022-12-12T06:52:59.036Z,45.47
2022-12-12T06:55:26.021Z,50.80
2022-12-12T06:57:58.155Z,44.17
2022-12-12T07:00:25.198Z,45.33
2022-12-12T07:02:52.136Z,49.42
2022-12-12T07:05:19.127Z,45.05
2022-12-12T07:07:46.047Z,49.78
2022-12-12T07:10:21.905Z,46.67
2022-12-12T07:12:52.102Z,45.67
2022-12-12T07:15:21.693Z,48.20
2022-12-12T07:17:53.127Z,42.58
2022-12-12T07:20:21.070Z,49.92
2022-12-12T07:22:48.183Z,45.58
2022-12-12T07:25:15.650Z,52.05
2022-12-12T07:27:46.719Z,53.72
2022-12-12T07:30:14.053Z,55.28
2022-12-12T07:32:40.984Z,51.25
2022-12-12T07:35:08.663Z,48.22
2022-12-12T07:40:27.205Z,47.45
2022-12-12T07:42:54.291Z,46.50
2022-12-12T07:45:21.564Z,44.67
2022-12-12T07:47:50.980Z,46.65
2022-12-12T07:50:18.213Z,44.45
2022-12-12T07:52:45.366Z,42.70
2022-12-12T07:55:12.781Z,46.55
2022-12-12T07:57:41.371Z,39.33
2022-12-12T08:00:13.609Z,40.42
2022-12-12T08:02:40.609Z,41.90
2022-12-12T08:05:11.796Z,45.00
2022-12-12T08:07:40.134Z,45.97
2022-12-12T08:10:07.462Z,43.15
2022-12-12T08:12:34.674Z,42.53
2022-12-12T08:15:01.886Z,38.63
2022-12-12T08:17:28.898Z,38.88
2022-12-12T08:19:55.798Z,41.60
2022-12-12T08:22:22.729Z,41.63
2022-12-12T08:24:50.502Z,39.22
2022-12-12T08:27:17.448Z,38.55
2022-12-12T08:29:44.619Z,39.53
2022-12-12T08:32:11.900Z,38.90
2022-12-12T08:34:38.776Z,36.17
2022-12-12T08:37:05.694Z,38.10
2022-12-12T08:39:33.080Z,41.13
2022-12-12T08:42:00.341Z,40.38
2022-12-12T08:44:28.071Z,37.45
2022-12-12T08:46:55.141Z,42.00
2022-12-12T08:49:22.332Z,36.72
2022-12-12T08:51:51.285Z,35.60
2022-12-12T08:54:26.339Z,39.10
2022-12-12T08:56:53.583Z,35.88
2022-12-12T08:59:21.114Z,34.08
2022-12-12T09:01:51.840Z,36.42
2022-12-12T09:04:19.032Z,36.88
2022-12-12T09:06:46.886Z,37.72
2022-12-12T09:09:14.152Z,36.58
2022-12-12T09:11:41.109Z,39.85
2022-12-12T09:14:08.646Z,38.42
2022-12-12T09:16:35.629Z,34.03
2022-12-12T09:22:14.691Z,37.85
2022-12-12T09:24:42.696Z,36.78
2022-12-12T09:27:09.531Z,34.25
2022-12-12T09:29:36.450Z,33.40
2022-12-12T09:32:06.440Z,33.63
2022-12-12T09:34:34.197Z,33.45
2022-12-12T09:37:01.265Z,37.55
2022-12-12T09:39:28.229Z,30.73
2022-12-12T09:41:55.848Z,31.52
2022-12-12T09:44:26.135Z,33.92
2022-12-12T09:49:52.440Z,38.38
2022-12-12T09:52:35.193Z,33.27
2022-12-12T09:55:20.420Z,30.85
2022-12-12T09:58:30.884Z,34.80
2022-12-12T10:01:25.479Z,31.33
2022-12-12T10:04:16.725Z,33.13
2022-12-12T10:07:04.254Z,32.63
2022-12-12T10:10:09.666Z,32.97
2022-12-12T10:12:38.062Z,32.78
2022-12-12T10:15:30.358Z,32.25
2022-12-12T10:22:28.223Z,32.38
2022-12-12T10:25:19.782Z,30.35
2022-12-12T10:27:47.861Z,33.85
2022-12-12T10:30:20.768Z,38.28
2022-12-12T10:33:22.252Z,33.45
2022-12-12T10:36:17.668Z,32.45
2022-12-12T10:38:50.341Z,36.83
2022-12-12T10:41:51.235Z,38.53
2022-12-12T10:44:36.238Z,35.08
2022-12-12T10:47:07.621Z,34.00
2022-12-12T10:49:35.564Z,33.25
2022-12-12T10:52:19.294Z,37.22
2022-12-12T10:54:52.463Z,34.28
2022-12-12T10:57:34.766Z,33.75
2022-12-12T11:00:27.476Z,33.20
2022-12-12T11:03:00.434Z,30.85
2022-12-12T11:05:35.955Z,31.75
2022-12-12T11:10:38.209Z,35.10
2022-12-12T11:13:11.068Z,37.95
2022-12-12T11:16:13.254Z,34.42
2022-12-12T11:18:40.772Z,34.83
2022-12-12T11:21:53.013Z,36.88
2022-12-12T11:24:27.324Z,38.05
2022-12-12T11:27:02.597Z,38.38
2022-12-12T11:32:20.797Z,37.37
2022-12-12T11:34:54.203Z,42.03
2022-12-12T11:37:29.100Z,37.38
2022-12-12T11:39:57.215Z,39.03
2022-12-12T11:42:30.067Z,33.10
2022-12-12T11:45:20.033Z,39.28
2022-12-12T11:47:48.293Z,35.33
2022-12-12T11:50:26.899Z,35.70
2022-12-12T11:52:58.181Z,34.75
2022-12-12T11:55:50.524Z,36.05
2022-12-12T11:59:01.161Z,37.60
2022-12-12T12:01:52.081Z,33.67
2022-12-12T12:05:06.409Z,38.47
2022-12-12T12:07:45.196Z,44.33
2022-12-12T12:10:59.962Z,40.80
2022-12-12T12:14:25.144Z,36.95
2022-12-12T12:17:16.663Z,35.85
2022-12-12T12:20:05.277Z,39.67
2022-12-12T12:22:54.729Z,38.85
2022-12-12T12:26:10.146Z,33.47
2022-12-12T12:29:07.297Z,36.10
2022-12-12T12:32:18.701Z,40.35
2022-12-12T12:35:18.181Z,37.10
2022-12-12T12:38:01.397Z,41.45
2022-12-12T12:41:02.270Z,46.33
2022-12-12T12:43:45.663Z,43.42
2022-12-12T12:47:06.975Z,42.67
2022-12-12T12:50:28.110Z,41.97
2022-12-12T12:53:17.520Z,44.03
2022-12-12T12:55:54.702Z,39.33
2022-12-12T12:58:35.287Z,43.67
2022-12-12T13:01:21.240Z,35.70
2022-12-12T13:04:32.808Z,42.08
2022-12-12T13:07:24.239Z,42.92
2022-12-12T13:10:00.214Z,41.17
2022-12-12T13:12:44.186Z,40.20
2022-12-12T13:15:27.234Z,37.17
2022-12-12T13:18:10.647Z,38.38
2022-12-12T13:20:50.436Z,38.78
2022-12-12T13:23:59.405Z,40.13
2022-12-12T13:26:57.542Z,43.67
2022-12-12T13:29:53.757Z,40.13
2022-12-12T13:35:37.877Z,39.85
2022-12-12T13:38:05.340Z,36.45
2022-12-12T13:40:41.390Z,38.45
2022-12-12T13:43:37.959Z,41.72
2022-12-12T13:46:34.320Z,34.88
2022-12-12T13:49:07.323Z,37.92
2022-12-12T13:51:47.839Z,41.00
2022-12-12T13:54:15.043Z,38.95
2022-12-12T13:57:13.144Z,31.27
2022-12-12T13:59:58.952Z,29.98
2022-12-12T14:05:31.099Z,29.00
2022-12-12T14:08:11.574Z,34.05
2022-12-12T14:11:01.955Z,30.67
2022-12-12T14:13:44.767Z,26.40
2022-12-12T14:16:14.656Z,25.95
2022-12-12T14:19:01.980Z,29.05
2022-12-12T14:21:56.318Z,22.30
2022-12-12T14:24:35.319Z,24.85
2022-12-12T14:27:12.109Z,22.77
2022-12-12T14:29:44.994Z,26.55
2022-12-12T14:32:11.981Z,26.05
2022-12-12T14:34:51.616Z,26.98
2022-12-12T14:37:51.419Z,27.48
2022-12-12T14:40:40.038Z,27.58
2022-12-12T14:43:22.987Z,29.92
2022-12-12T14:45:50.272Z,26.52
2022-12-12T14:48:31.709Z,29.92
2022-12-12T14:51:28.909Z,28.88
2022-12-12T14:54:00.304Z,27.48
2022-12-12T14:56:39.440Z,28.45
2022-12-12T14:59:19.763Z,27.83
2022-12-12T15:02:34.932Z,28.30
2022-12-12T15:05:07.358Z,30.55
2022-12-12T15:07:38.445Z,30.63
2022-12-12T15:10:25.534Z,30.98
2022-12-12T15:12:52.437Z,32.80
2022-12-12T15:15:30.820Z,33.00
2022-12-12T15:18:00.905Z,36.47
2022-12-12T15:20:32.547Z,46.03
2022-12-12T15:23:04.421Z,35.15
2022-12-12T15:25:43.306Z,41.15
2022-12-12T15:28:20.124Z,37.80
2022-12-12T15:30:52.265Z,36.92
2022-12-12T15:33:26.393Z,34.00
2022-12-12T15:36:02.487Z,33.15
2022-12-12T15:38:30.404Z,34.38
2022-12-12T15:41:02.967Z,32.33
2022-12-12T15:43:33.317Z,34.42
2022-12-12T15:46:13.789Z,34.20
2022-12-12T15:48:46.408Z,36.00
2022-12-12T15:51:21.079Z,36.70
2022-12-12T15:53:53.968Z,35.42
2022-12-12T15:56:21.091Z,37.85
2022-12-12T15:59:09.320Z,33.30
2022-12-12T16:01:36.563Z,34.03
2022-12-12T16:04:27.109Z,38.00
2022-12-12T16:06:54.096Z,35.03
2022-12-12T16:09:26.683Z,34.88
2022-12-12T16:11:59.280Z,37.22
2022-12-12T16:14:38.942Z,45.55
2022-12-12T16:17:20.369Z,35.70
2022-12-12T16:20:11.271Z,34.70
2022-12-12T16:22:50.343Z,38.03
2022-12-12T16:25:34.051Z,38.03
2022-12-12T16:28:07.561Z,33.67
2022-12-12T16:30:39.859Z,37.00
2022-12-12T16:33:20.423Z,36.13
2022-12-12T16:35:47.303Z,34.10
2022-12-12T16:38:17.480Z,36.05
2022-12-12T16:40:47.936Z,37.25
2022-12-12T16:43:19.021Z,35.17
2022-12-12T16:45:49.199Z,35.25
2022-12-12T16:48:23.379Z,39.50
2022-12-12T16:50:56.536Z,36.72
2022-12-12T16:53:23.940Z,35.40
2022-12-12T16:55:52.232Z,37.20
2022-12-12T16:58:24.290Z,35.17
2022-12-12T17:00:53.139Z,36.47
2022-12-12T17:03:22.007Z,38.28
2022-12-12T17:05:50.386Z,35.20
2022-12-12T17:08:18.138Z,37.80
2022-12-12T17:10:50.132Z,35.88
2022-12-12T17:13:24.823Z,35.30
2022-12-12T17:15:55.960Z,33.35
2022-12-12T17:18:23.708Z,35.30
2022-12-12T17:20:50.664Z,38.88
2022-12-12T17:23:29.993Z,35.22
2022-12-12T17:26:03.497Z,36.40
2022-12-12T17:28:33.896Z,36.58
2022-12-12T17:31:02.029Z,39.30
2022-12-12T17:33:29.478Z,39.67
2022-12-12T17:36:07.237Z,35.03
2022-12-12T17:38:34.795Z,31.25
2022-12-12T17:41:10.820Z,38.22
2022-12-12T17:43:38.646Z,33.30
2022-12-12T17:46:14.224Z,36.35
2022-12-12T17:48:45.875Z,35.53
2022-12-12T17:51:20.799Z,34.45
2022-12-12T17:53:47.799Z,37.37
2022-12-12T17:56:22.264Z,32.05
2022-12-12T17:58:50.167Z,36.47
2022-12-12T18:01:27.803Z,30.35
2022-12-12T18:03:56.181Z,31.85
2022-12-12T18:06:25.523Z,33.22
2022-12-12T18:08:53.366Z,34.38
2022-12-12T18:11:25.477Z,33.25
2022-12-12T18:13:57.412Z,32.08
2022-12-12T18:16:27.395Z,35.83
2022-12-12T18:18:56.758Z,33.53
2022-12-12T18:24:19.291Z,36.28
2022-12-12T18:26:47.626Z,32.38
2022-12-12T18:29:14.938Z,35.22
2022-12-12T18:31:42.423Z,33.60
2022-12-12T18:34:09.454Z,34.60
2022-12-12T18:36:36.559Z,36.03
2022-12-12T18:39:06.983Z,33.63
2022-12-12T18:41:36.748Z,35.05
2022-12-12T18:44:09.782Z,32.92
2022-12-12T18:46:42.405Z,33.92
2022-12-12T18:49:15.412Z,32.50
2022-12-12T18:51:46.141Z,33.83
2022-12-12T18:54:16.898Z,33.30
2022-12-12T18:56:48.166Z,34.95
2022-12-12T18:59:18.010Z,35.30
2022-12-12T19:01:47.477Z,35.15
2022-12-12T19:04:22.760Z,37.90
2022-12-12T19:06:53.449Z,38.25
2022-12-12T19:09:21.446Z,36.63
2022-12-12T19:11:50.405Z,37.42
2022-12-12T19:14:17.594Z,34.67
2022-12-12T19:16:45.324Z,37.55
2022-12-12T19:19:13.635Z,36.88
2022-12-12T19:21:42.705Z,36.33
2022-12-12T19:24:12.424Z,37.20
2022-12-12T19:26:43.781Z,33.63
2022-12-12T19:29:15.433Z,36.22
2022-12-12T19:31:43.362Z,35.80
2022-12-12T19:34:14.047Z,35.42
2022-12-12T19:36:43.368Z,36.58
2022-12-12T19:39:12.539Z,33.88
2022-12-12T19:41:40.523Z,33.28
2022-12-12T19:44:12.674Z,35.53
2022-12-12T19:46:43.196Z,36.83
2022-12-12T19:49:15.565Z,40.35
2022-12-12T19:51:45.451Z,35.55
2022-12-12T19:54:20.685Z,38.70
2022-12-12T19:56:48.184Z,40.00
2022-12-12T19:59:18.930Z,38.17
2022-12-12T20:01:47.168Z,35.45
2022-12-12T20:04:18.149Z,36.63
2022-12-12T20:06:46.434Z,36.53
2022-12-12T20:09:23.552Z,33.53
2022-12-12T20:11:51.306Z,37.15
2022-12-12T20:14:22.926Z,38.08
2022-12-12T20:16:51.802Z,33.83
2022-12-12T20:19:20.034Z,35.50
2022-12-12T20:22:05.911Z,33.92
2022-12-12T20:27:03.673Z,35.42
2022-12-12T20:29:31.320Z,33.20
2022-12-12T20:31:59.950Z,37.33
2022-12-12T20:34:28.198Z,34.60
2022-12-12T20:36:55.855Z,34.45
2022-12-12T20:39:25.038Z,34.15
2022-12-12T20:41:53.618Z,37.05
2022-12-12T20:44:22.529Z,31.00
2022-12-12T20:46:52.057Z,34.58
2022-12-12T20:49:22.164Z,38.90
2022-12-12T20:51:57.901Z,37.72
2022-12-12T20:54:28.940Z,38.75
2022-12-12T20:56:58.375Z,39.15
2022-12-12T20:59:26.354Z,33.83
2022-12-12T21:01:53.587Z,36.95
2022-12-12T21:04:20.943Z,38.67
2022-12-12T21:06:49.392Z,35.40
2022-12-12T21:09:23.934Z,33.88
2022-12-12T21:11:57.945Z,35.67
2022-12-12T21:14:27.925Z,37.58
2022-12-12T21:16:55.616Z,32.33
2022-12-12T21:19:23.451Z,32.55
2022-12-12T21:21:51.774Z,29.63
2022-12-12T21:24:19.647Z,34.17
2022-12-12T21:26:47.686Z,33.08
2022-12-12T21:29:16.051Z,34.13
2022-12-12T21:31:50.961Z,33.13
2022-12-12T21:34:22.524Z,33.47
2022-12-12T21:36:54.732Z,35.75
2022-12-12T21:39:28.534Z,32.83
2022-12-12T21:41:56.469Z,33.03
2022-12-12T21:44:24.538Z,33.55
2022-12-12T21:46:52.227Z,33.00
2022-12-12T21:49:30.539Z,33.95
2022-12-12T21:52:01.089Z,30.60
2022-12-12T21:54:29.314Z,28.42
2022-12-12T21:56:59.068Z,28.30
2022-12-12T21:59:26.885Z,34.20
2022-12-12T22:01:58.849Z,32.88
2022-12-12T22:04:26.474Z,28.70
2022-12-12T22:06:53.513Z,27.67
2022-12-12T22:09:22.062Z,34.22
2022-12-12T22:11:52.177Z,30.50
2022-12-12T22:14:29.987Z,28.83
2022-12-12T22:16:56.940Z,30.92
2022-12-12T22:19:24.921Z,35.10
2022-12-12T22:21:51.911Z,33.97
2022-12-12T22:24:18.889Z,37.17
2022-12-12T22:26:49.549Z,32.03
2022-12-12T22:29:20.054Z,35.25
2022-12-12T22:31:50.063Z,32.28
2022-12-12T22:34:24.222Z,33.95
2022-12-12T22:36:52.580Z,26.88
2022-12-12T22:39:25.680Z,30.55
2022-12-12T22:41:55.718Z,33.15
2022-12-12T22:44:25.527Z,30.48
2022-12-12T22:46:55.009Z,28.77
2022-12-12T22:49:26.255Z,31.10
2022-12-12T22:51:56.911Z,28.63
2022-12-12T22:54:25.414Z,29.17
2022-12-12T22:56:52.710Z,28.95
2022-12-12T22:59:19.651Z,31.35
2022-12-12T23:01:46.567Z,29.58
2022-12-12T23:04:14.760Z,26.85
2022-12-12T23:06:43.107Z,29.80
2022-12-12T23:09:20.733Z,26.83
2022-12-12T23:11:49.249Z,27.63
2022-12-12T23:14:22.646Z,25.23
2022-12-12T23:16:50.985Z,28.60
2022-12-12T23:19:23.309Z,34.20
2022-12-12T23:21:50.377Z,30.13
2022-12-12T23:24:17.516Z,27.10
2022-12-12T23:26:45.005Z,27.67
2022-12-12T23:29:16.767Z,27.75
2022-12-12T23:31:44.450Z,26.80
2022-12-12T23:34:23.136Z,26.90
2022-12-12T23:36:54.583Z,24.08
2022-12-12T23:39:23.933Z,24.65
2022-12-12T23:41:51.144Z,26.13
2022-12-12T23:44:21.028Z,28.20
2022-12-12T23:46:48.964Z,25.13
2022-12-12T23:49:24.249Z,27.52
2022-12-12T23:54:31.858Z,24.42
2022-12-12T23:56:59.736Z,26.08
2022-12-12T23:59:27.276Z,26.13
